Time;durP1;ratioP1;P1;durP2;ratioP2;P2;SDS_P1;SDS_P2;PMS_P1;PMS_P2;Temp;Humidity;BMP_temperature;BMP_pressure;BME280_temperature;BME280_humidity;BME280_pressure;Samples;Min_cycle;Max_cycle;Signal;HPM_P1;HPM_P2
2023/03/14 00:01:04;;;;;;;1.63;1.53;;;;;;;;;;4956490;28;20441;-77
2023/03/14 00:03:32;;;;;;;1.60;1.20;;;;;;;;;;4956361;28;20441;-75
2023/03/14 00:06:02;;;;;;;1.63;1.43;;;;;;;;;;4939332;28;20525;-76
2023/03/14 00:08:28;;;;;;;2.47;1.17;;;;;;;;;;4949505;28;20440;-75
2023/03/14 00:10:54;;;;;;;1.33;1.33;;;;;;;;;;4953410;28;20957;-76
2023/03/14 00:13:20;;;;;;;1.53;1.43;;;;;;;;;;4958490;28;20461;-77
2023/03/14 00:15:46;;;;;;;1.20;1.10;;;;;;;;;;4956672;28;20920;-75
2023/03/14 00:18:15;;;;;;;3.40;1.50;;;;;;;;;;4965932;28;20477;-76
2023/03/14 00:20:41;;;;;;;2.00;1.50;;;;;;;;;;4933481;29;20485;-75
2023/03/14 00:23:07;;;;;;;1.57;1.47;;;;;;;;;;4944527;28;20525;-75
2023/03/14 00:25:33;;;;;;;2.97;1.90;;;;;;;;;;4958922;28;20981;-76
2023/03/14 00:28:00;;;;;;;1.67;1.47;;;;;;;;;;4966706;28;20736;-76
2023/03/14 00:30:26;;;;;;;1.30;1.30;;;;;;;;;;4950300;28;20879;-76
2023/03/14 00:32:52;;;;;;;2.00;1.60;;;;;;;;;;4966056;28;20441;-75
2023/03/14 00:35:18;;;;;;;1.13;0.97;;;;;;;;;;4936880;28;20421;-76
2023/03/14 00:37:44;;;;;;;1.63;1.17;;;;;;;;;;4932425;28;20790;-75
2023/03/14 00:40:11;;;;;;;1.43;1.37;;;;;;;;;;4963470;28;20508;-76
2023/03/14 00:42:38;;;;;;;4.47;1.50;;;;;;;;;;4944429;28;21014;-75
2023/03/14 00:45:04;;;;;;;4.40;1.97;;;;;;;;;;4939672;28;20426;-76
2023/03/14 00:47:30;;;;;;;1.00;1.00;;;;;;;;;;4936975;28;20433;-78
2023/03/14 00:49:57;;;;;;;5.53;1.70;;;;;;;;;;4937623;28;20437;-76
2023/03/14 00:52:22;;;;;;;1.33;1.23;;;;;;;;;;4938787;28;20453;-76
2023/03/14 00:54:48;;;;;;;1.97;1.20;;;;;;;;;;4954945;28;20445;-77
2023/03/14 00:57:14;;;;;;;7.60;1.63;;;;;;;;;;4966534;28;20441;-78
2023/03/14 00:59:41;;;;;;;2.20;0.67;;;;;;;;;;4955305;28;20484;-78
2023/03/14 01:02:06;;;;;;;0.70;0.60;;;;;;;;;;4951771;28;20466;-79
2023/03/14 01:04:33;;;;;;;1.23;0.80;;;;;;;;;;4951461;28;20449;-78
2023/03/14 01:06:59;;;;;;;0.97;0.97;;;;;;;;;;4954715;28;20772;-77
2023/03/14 01:09:25;;;;;;;0.80;0.80;;;;;;;;;;4935544;28;20434;-77
2023/03/14 01:11:51;;;;;;;0.83;0.83;;;;;;;;;;4946748;29;20423;-76
2023/03/14 01:14:17;;;;;;;4.33;1.10;;;;;;;;;;4961718;28;20503;-78
2023/03/14 01:16:43;;;;;;;0.87;0.87;;;;;;;;;;4930557;29;20442;-78
2023/03/14 01:19:09;;;;;;;2.13;2.00;;;;;;;;;;4961284;28;20715;-79
2023/03/14 01:21:37;;;;;;;3.00;1.07;;;;;;;;;;4940407;28;20454;-80
2023/03/14 01:24:04;;;;;;;1.40;1.10;;;;;;;;;;4951439;28;20444;-79
2023/03/14 01:26:32;;;;;;;3.60;0.90;;;;;;;;;;4944728;28;20476;-78
2023/03/14 01:28:58;;;;;;;1.67;1.33;;;;;;;;;;4965364;28;20441;-76
2023/03/14 01:31:24;;;;;;;1.47;1.43;;;;;;;;;;4961466;28;20444;-77
2023/03/14 01:33:52;;;;;;;3.40;1.97;;;;;;;;;;4949376;28;20438;-77
2023/03/14 01:36:18;;;;;;;4.17;1.10;;;;;;;;;;4945619;28;20437;-77
2023/03/14 01:38:44;;;;;;;2.60;1.10;;;;;;;;;;4956722;28;20462;-76
2023/03/14 01:41:13;;;;;;;2.30;1.20;;;;;;;;;;4950521;28;20461;-77
2023/03/14 01:43:39;;;;;;;2.33;1.10;;;;;;;;;;4946657;28;20434;-78
2023/03/14 01:46:05;;;;;;;7.03;2.00;;;;;;;;;;4952410;28;20476;-77
2023/03/14 01:48:46;;;;;;;2.73;0.80;;;;;;;;;;4950307;28;20932;-78
2023/03/14 01:51:18;;;;;;;3.97;1.57;;;;;;;;;;4940020;28;20429;-77
2023/03/14 01:53:45;;;;;;;5.10;0.90;;;;;;;;;;4950149;28;20505;-77
2023/03/14 01:56:12;;;;;;;2.63;1.07;;;;;;;;;;4961505;28;20484;-76
2023/03/14 01:58:39;;;;;;;0.63;0.60;;;;;;;;;;4960126;28;20465;-76
2023/03/14 02:01:06;;;;;;;2.90;2.00;;;;;;;;;;4950875;28;20445;-77
2023/03/14 02:03:36;;;;;;;0.57;0.53;;;;;;;;;;4955900;28;20442;-77
2023/03/14 02:06:05;;;;;;;5.30;1.23;;;;;;;;;;4961136;28;20453;-76
2023/03/14 02:08:31;;;;;;;1.27;1.17;;;;;;;;;;4964753;28;20429;-76
2023/03/14 02:10:57;;;;;;;8.03;1.13;;;;;;;;;;4943497;28;20461;-75
2023/03/14 02:13:23;;;;;;;4.33;1.13;;;;;;;;;;4953443;28;20465;-77
2023/03/14 02:15:50;;;;;;;1.60;0.70;;;;;;;;;;4956297;28;20456;-76
2023/03/14 02:18:17;;;;;;;5.87;1.00;;;;;;;;;;4955310;28;20489;-76
2023/03/14 02:21:01;;;;;;;2.30;1.70;;;;;;;;;;4948975;28;20459;-76
2023/03/14 02:23:27;;;;;;;1.17;1.00;;;;;;;;;;4930841;28;20616;-77
2023/03/14 02:26:06;;;;;;;2.07;1.23;;;;;;;;;;4939931;29;20549;-76
2023/03/14 02:28:32;;;;;;;1.40;1.00;;;;;;;;;;4936684;29;20525;-76
2023/03/14 02:30:58;;;;;;;3.67;1.07;;;;;;;;;;4933227;29;20454;-76
2023/03/14 02:33:25;;;;;;;1.27;1.00;;;;;;;;;;4933905;29;20643;-78
2023/03/14 02:35:53;;;;;;;4.20;1.57;;;;;;;;;;4932774;29;20443;-76
2023/03/14 02:38:20;;;;;;;1.43;1.00;;;;;;;;;;4947751;29;20458;-76
2023/03/14 02:40:46;;;;;;;0.93;0.93;;;;;;;;;;4938136;29;20438;-76
2023/03/14 02:43:12;;;;;;;2.57;1.30;;;;;;;;;;4927918;29;20427;-76
2023/03/14 02:45:41;;;;;;;3.50;1.90;;;;;;;;;;4929278;29;20462;-76
2023/03/14 02:48:09;;;;;;;1.80;1.00;;;;;;;;;;4946063;29;20438;-77
2023/03/14 02:50:35;;;;;;;2.10;1.00;;;;;;;;;;4924006;29;20450;-76
2023/03/14 02:53:02;;;;;;;2.03;1.30;;;;;;;;;;4922580;29;20452;-76
2023/03/14 02:55:28;;;;;;;1.50;1.00;;;;;;;;;;4916917;29;20451;-78
2023/03/14 02:57:54;;;;;;;5.80;0.70;;;;;;;;;;4931078;29;20480;-75
2023/03/14 03:00:20;;;;;;;1.60;1.20;;;;;;;;;;4935934;29;20439;-76
2023/03/14 03:02:46;;;;;;;6.23;1.37;;;;;;;;;;4944925;29;20477;-76
2023/03/14 03:05:12;;;;;;;1.80;1.70;;;;;;;;;;4932090;28;20518;-75
2023/03/14 03:07:38;;;;;;;1.53;0.73;;;;;;;;;;4916251;29;20430;-75
2023/03/14 03:10:04;;;;;;;1.60;1.60;;;;;;;;;;4940475;29;20446;-75
2023/03/14 03:12:30;;;;;;;3.60;1.00;;;;;;;;;;4940649;29;20610;-76
2023/03/14 03:14:56;;;;;;;6.13;1.47;;;;;;;;;;4926718;29;20624;-76
2023/03/14 03:17:22;;;;;;;5.33;1.53;;;;;;;;;;4939122;29;20415;-75
2023/03/14 03:19:48;;;;;;;3.27;1.37;;;;;;;;;;4933252;29;20509;-75
2023/03/14 03:22:14;;;;;;;3.33;0.87;;;;;;;;;;4942996;28;20855;-75
2023/03/14 03:24:40;;;;;;;1.13;0.93;;;;;;;;;;4927575;29;20816;-75
2023/03/14 03:27:06;;;;;;;1.13;1.00;;;;;;;;;;4942108;29;20437;-75
2023/03/14 03:29:32;;;;;;;4.90;1.37;;;;;;;;;;4930910;29;20491;-76
2023/03/14 03:31:58;;;;;;;6.83;1.27;;;;;;;;;;4936830;29;20483;-75
2023/03/14 03:34:24;;;;;;;5.03;2.20;;;;;;;;;;4925777;29;20521;-76
2023/03/14 03:36:50;;;;;;;3.13;1.30;;;;;;;;;;4941043;29;20437;-75
2023/03/14 03:39:16;;;;;;;1.60;0.80;;;;;;;;;;4926211;29;20482;-76
2023/03/14 03:41:42;;;;;;;1.47;0.83;;;;;;;;;;4932705;29;20490;-76
2023/03/14 03:44:12;;;;;;;1.20;1.20;;;;;;;;;;4943801;29;20524;-76
2023/03/14 03:46:38;;;;;;;3.87;1.10;;;;;;;;;;4929262;29;20836;-76
2023/03/14 03:49:04;;;;;;;2.57;1.27;;;;;;;;;;4923907;29;20478;-76
2023/03/14 03:51:30;;;;;;;1.80;1.00;;;;;;;;;;4917307;29;20919;-76
2023/03/14 03:53:56;;;;;;;1.70;1.30;;;;;;;;;;4916373;29;20458;-77
2023/03/14 03:56:22;;;;;;;2.60;1.20;;;;;;;;;;4917362;29;20474;-77
2023/03/14 03:58:48;;;;;;;3.23;1.27;;;;;;;;;;4916114;29;20514;-78
2023/03/14 04:01:14;;;;;;;2.20;1.30;;;;;;;;;;4918919;29;20451;-76
2023/03/14 04:03:40;;;;;;;3.30;1.00;;;;;;;;;;4916806;29;20467;-76
2023/03/14 04:06:08;;;;;;;1.10;1.10;;;;;;;;;;4920003;29;20453;-76
2023/03/14 04:08:34;;;;;;;4.73;1.17;;;;;;;;;;4915393;29;20458;-78
2023/03/14 04:11:01;;;;;;;2.67;1.03;;;;;;;;;;4921322;29;20452;-76
2023/03/14 04:13:27;;;;;;;3.10;1.77;;;;;;;;;;4916510;29;20554;-76
2023/03/14 04:15:54;;;;;;;3.87;1.03;;;;;;;;;;4911095;29;20446;-78
2023/03/14 04:18:20;;;;;;;3.23;1.07;;;;;;;;;;4899441;29;20493;-78
2023/03/14 04:20:50;;;;;;;0.67;0.67;;;;;;;;;;4917275;29;20459;-78
2023/03/14 04:23:16;;;;;;;1.10;1.03;;;;;;;;;;4914123;29;20454;-77
2023/03/14 04:25:42;;;;;;;1.13;1.13;;;;;;;;;;4916109;29;20483;-78
2023/03/14 04:28:08;;;;;;;2.03;0.93;;;;;;;;;;4923497;29;20436;-78
2023/03/14 04:30:34;;;;;;;3.00;0.80;;;;;;;;;;4919053;29;20461;-79
2023/03/14 04:33:00;;;;;;;1.70;0.80;;;;;;;;;;4925964;29;20942;-76
2023/03/14 04:35:26;;;;;;;2.07;1.03;;;;;;;;;;4927028;29;20469;-77
2023/03/14 04:37:52;;;;;;;1.47;0.83;;;;;;;;;;4920844;29;20443;-77
2023/03/14 04:40:18;;;;;;;3.40;0.60;;;;;;;;;;4920144;29;20462;-76
2023/03/14 04:42:44;;;;;;;1.23;0.50;;;;;;;;;;4927216;29;20433;-76
2023/03/14 04:45:10;;;;;;;0.50;0.50;;;;;;;;;;4936066;29;20509;-77
2023/03/14 04:47:36;;;;;;;0.60;0.40;;;;;;;;;;4928984;29;20785;-77
2023/03/14 04:50:02;;;;;;;0.77;0.77;;;;;;;;;;4924931;29;20542;-78
2023/03/14 04:52:28;;;;;;;0.50;0.50;;;;;;;;;;4928112;29;20427;-78
2023/03/14 04:54:55;;;;;;;1.67;0.77;;;;;;;;;;4926535;29;20439;-75
2023/03/14 04:57:21;;;;;;;0.50;0.50;;;;;;;;;;4920316;29;20646;-77
2023/03/14 04:59:47;;;;;;;0.47;0.30;;;;;;;;;;4932665;29;20569;-77
2023/03/14 05:02:13;;;;;;;0.47;0.47;;;;;;;;;;4922604;29;20446;-77
2023/03/14 05:04:38;;;;;;;1.03;0.40;;;;;;;;;;4928685;29;20462;-77
2023/03/14 05:07:04;;;;;;;0.50;0.50;;;;;;;;;;4927157;29;20525;-77
2023/03/14 05:09:30;;;;;;;1.70;0.60;;;;;;;;;;4929255;29;20454;-78
2023/03/14 05:11:56;;;;;;;2.67;0.43;;;;;;;;;;4927985;29;20482;-77
2023/03/14 05:14:22;;;;;;;0.30;0.30;;;;;;;;;;4936330;29;21004;-79
2023/03/14 05:16:48;;;;;;;0.30;0.30;;;;;;;;;;4939188;29;20450;-77
2023/03/14 05:19:14;;;;;;;1.13;0.77;;;;;;;;;;4934784;29;20478;-79
2023/03/14 05:21:40;;;;;;;0.53;0.53;;;;;;;;;;4933923;28;20545;-78
2023/03/14 05:24:06;;;;;;;0.67;0.67;;;;;;;;;;4945961;28;20472;-78
2023/03/14 05:26:32;;;;;;;0.80;0.80;;;;;;;;;;4957606;28;20482;-78
2023/03/14 05:28:58;;;;;;;0.70;0.70;;;;;;;;;;4955096;28;20984;-77
2023/03/14 05:31:24;;;;;;;1.90;0.57;;;;;;;;;;4939826;28;20464;-78
2023/03/14 05:33:50;;;;;;;0.63;0.63;;;;;;;;;;4947487;28;20937;-77
2023/03/14 05:36:16;;;;;;;0.50;0.50;;;;;;;;;;4952124;28;20980;-77
2023/03/14 05:38:42;;;;;;;1.47;1.20;;;;;;;;;;4956535;28;20470;-79
2023/03/14 05:41:08;;;;;;;2.10;0.97;;;;;;;;;;4946919;28;20517;-77
2023/03/14 05:43:34;;;;;;;1.10;0.80;;;;;;;;;;4949458;28;20418;-78
2023/03/14 05:46:00;;;;;;;1.80;1.70;;;;;;;;;;4946784;28;20544;-77
2023/03/14 05:48:26;;;;;;;4.77;2.23;;;;;;;;;;4951017;28;20508;-78
2023/03/14 05:50:56;;;;;;;2.50;1.80;;;;;;;;;;4950234;28;20451;-79
2023/03/14 05:53:22;;;;;;;2.63;2.10;;;;;;;;;;4946716;28;20837;-77
2023/03/14 05:55:47;;;;;;;2.70;2.50;;;;;;;;;;4938185;28;20542;-78
2023/03/14 05:58:13;;;;;;;2.57;2.37;;;;;;;;;;4940750;28;20879;-78
2023/03/14 06:00:39;;;;;;;4.70;1.50;;;;;;;;;;4954664;28;21329;-77
2023/03/14 06:03:05;;;;;;;2.10;1.90;;;;;;;;;;4929440;28;20494;-77
2023/03/14 06:05:31;;;;;;;3.33;2.07;;;;;;;;;;4952535;28;20448;-79
2023/03/14 06:07:57;;;;;;;1.43;1.43;;;;;;;;;;4934125;28;20576;-77
2023/03/14 06:10:23;;;;;;;4.00;1.77;;;;;;;;;;4940113;28;20952;-78
2023/03/14 06:12:49;;;;;;;2.80;1.60;;;;;;;;;;4944351;28;20897;-78
2023/03/14 06:15:15;;;;;;;1.67;1.40;;;;;;;;;;4950190;28;20534;-79
2023/03/14 06:17:41;;;;;;;0.93;0.93;;;;;;;;;;4937932;28;20453;-77
2023/03/14 06:20:07;;;;;;;1.40;1.40;;;;;;;;;;4941070;28;20493;-78
2023/03/14 06:22:33;;;;;;;2.60;1.67;;;;;;;;;;4929675;28;20478;-76
2023/03/14 06:24:59;;;;;;;2.70;2.50;;;;;;;;;;4942365;28;20531;-78
2023/03/14 06:27:25;;;;;;;0.97;0.97;;;;;;;;;;4942633;28;20521;-78
2023/03/14 06:29:51;;;;;;;0.87;0.70;;;;;;;;;;4941136;28;20496;-77
2023/03/14 06:32:18;;;;;;;1.00;1.00;;;;;;;;;;4937624;28;20449;-77
2023/03/14 06:34:44;;;;;;;2.00;2.00;;;;;;;;;;4927507;28;20964;-78
2023/03/14 06:37:10;;;;;;;1.13;0.77;;;;;;;;;;4938662;28;20471;-78
2023/03/14 06:39:37;;;;;;;5.40;1.00;;;;;;;;;;4933869;28;20461;-78
2023/03/14 06:42:03;;;;;;;2.83;0.73;;;;;;;;;;4927875;28;20802;-76
2023/03/14 06:44:29;;;;;;;4.23;0.73;;;;;;;;;;4956813;28;20506;-79
2023/03/14 06:46:55;;;;;;;0.80;0.80;;;;;;;;;;4955041;28;20447;-77
2023/03/14 06:49:21;;;;;;;0.50;0.50;;;;;;;;;;4943128;28;20415;-77
2023/03/14 06:51:47;;;;;;;0.60;0.60;;;;;;;;;;4933716;28;20439;-78
2023/03/14 06:54:13;;;;;;;1.63;0.50;;;;;;;;;;4944723;28;20417;-77
2023/03/14 06:56:39;;;;;;;1.40;1.40;;;;;;;;;;4948416;28;20672;-79
2023/03/14 06:59:05;;;;;;;0.77;0.77;;;;;;;;;;4952129;28;20462;-78
2023/03/14 07:01:34;;;;;;;0.40;0.40;;;;;;;;;;4963948;28;20548;-79
2023/03/14 07:04:00;;;;;;;0.77;0.77;;;;;;;;;;4954496;28;20848;-76
2023/03/14 07:06:29;;;;;;;0.30;0.30;;;;;;;;;;4958405;28;20528;-77
2023/03/14 07:08:55;;;;;;;4.47;0.50;;;;;;;;;;4955111;28;20406;-78
2023/03/14 07:11:21;;;;;;;0.40;0.40;;;;;;;;;;4951325;28;20447;-75
2023/03/14 07:13:47;;;;;;;1.60;1.47;;;;;;;;;;4962100;28;20445;-77
2023/03/14 07:16:16;;;;;;;0.60;0.60;;;;;;;;;;4941972;29;21029;-78
2023/03/14 07:18:42;;;;;;;0.60;0.40;;;;;;;;;;4950706;28;20849;-78
2023/03/14 07:21:08;;;;;;;0.40;0.40;;;;;;;;;;4939233;28;20469;-77
2023/03/14 07:23:35;;;;;;;2.30;1.00;;;;;;;;;;4928996;29;20477;-77
2023/03/14 07:26:01;;;;;;;0.40;0.40;;;;;;;;;;4926140;29;20883;-77
2023/03/14 07:28:27;;;;;;;0.30;0.30;;;;;;;;;;4934255;29;20427;-77
2023/03/14 07:30:53;;;;;;;0.40;0.40;;;;;;;;;;4922638;29;20914;-76
2023/03/14 07:33:20;;;;;;;1.03;0.40;;;;;;;;;;4920394;29;20436;-76
2023/03/14 07:35:48;;;;;;;0.53;0.50;;;;;;;;;;4940530;29;20453;-76
2023/03/14 07:38:14;;;;;;;0.30;0.30;;;;;;;;;;4934074;29;20823;-78
2023/03/14 07:40:40;;;;;;;1.23;0.60;;;;;;;;;;4917876;29;20435;-77
2023/03/14 07:43:06;;;;;;;0.33;0.33;;;;;;;;;;4931475;29;20473;-78
2023/03/14 07:45:32;;;;;;;0.30;0.30;;;;;;;;;;4925703;29;21075;-79
2023/03/14 07:47:58;;;;;;;3.67;0.60;;;;;;;;;;4923581;29;20439;-77
2023/03/14 07:50:25;;;;;;;0.67;0.67;;;;;;;;;;4924940;29;20532;-77
2023/03/14 07:52:51;;;;;;;0.80;0.80;;;;;;;;;;4929584;29;20456;-76
2023/03/14 07:55:17;;;;;;;0.60;0.60;;;;;;;;;;4939970;29;20689;-77
2023/03/14 07:57:43;;;;;;;0.40;0.40;;;;;;;;;;4936042;29;20443;-76
2023/03/14 08:00:09;;;;;;;0.70;0.70;;;;;;;;;;4937448;29;20449;-76
2023/03/14 08:02:36;;;;;;;1.20;0.80;;;;;;;;;;4933262;29;20538;-77
2023/03/14 08:05:02;;;;;;;1.70;0.73;;;;;;;;;;4942772;29;20456;-78
2023/03/14 08:07:29;;;;;;;0.50;0.50;;;;;;;;;;4938884;29;20459;-77
2023/03/14 08:09:55;;;;;;;0.60;0.60;;;;;;;;;;4938505;29;20455;-76
2023/03/14 08:12:21;;;;;;;0.80;0.80;;;;;;;;;;4936660;29;20986;-77
2023/03/14 08:14:47;;;;;;;0.93;0.93;;;;;;;;;;4938231;29;20478;-76
2023/03/14 08:17:13;;;;;;;0.60;0.60;;;;;;;;;;4935494;29;20473;-76
2023/03/14 08:19:39;;;;;;;1.80;0.70;;;;;;;;;;4932333;29;20637;-79
2023/03/14 08:22:05;;;;;;;0.63;0.60;;;;;;;;;;4929709;28;20502;-75
2023/03/14 08:24:31;;;;;;;0.87;0.87;;;;;;;;;;4932154;29;20854;-76
2023/03/14 08:26:57;;;;;;;0.83;0.83;;;;;;;;;;4942515;29;21056;-77
2023/03/14 08:29:23;;;;;;;1.60;0.70;;;;;;;;;;4944546;29;20442;-78
2023/03/14 08:31:49;;;;;;;1.00;0.87;;;;;;;;;;4942606;29;20506;-77
2023/03/14 08:34:15;;;;;;;0.70;0.70;;;;;;;;;;4935432;29;20637;-77
2023/03/14 08:36:41;;;;;;;2.70;1.20;;;;;;;;;;4936007;29;20430;-77
2023/03/14 08:39:07;;;;;;;1.47;1.03;;;;;;;;;;4932856;29;20526;-78
2023/03/14 08:41:39;;;;;;;1.10;1.10;;;;;;;;;;4937408;29;20779;-75
2023/03/14 08:44:05;;;;;;;1.00;1.00;;;;;;;;;;4924625;29;20482;-76
2023/03/14 08:46:31;;;;;;;0.93;0.70;;;;;;;;;;4935294;29;20449;-76
2023/03/14 08:48:57;;;;;;;1.00;1.00;;;;;;;;;;4922578;29;20447;-77
2023/03/14 08:51:23;;;;;;;1.03;0.77;;;;;;;;;;4917134;29;20802;-76
2023/03/14 08:53:50;;;;;;;1.00;1.00;;;;;;;;;;4927203;29;20463;-77
2023/03/14 08:56:16;;;;;;;1.20;1.10;;;;;;;;;;4928364;29;20499;-77
2023/03/14 08:58:42;;;;;;;1.00;1.00;;;;;;;;;;4909567;29;21111;-77
2023/03/14 09:01:10;;;;;;;1.20;1.20;;;;;;;;;;4921503;29;20481;-77
2023/03/14 09:03:36;;;;;;;1.10;1.10;;;;;;;;;;4924768;29;20450;-76
2023/03/14 09:06:06;;;;;;;1.17;1.17;;;;;;;;;;4921704;29;20812;-78
2023/03/14 09:08:33;;;;;;;2.13;1.60;;;;;;;;;;4916963;29;20619;-78
2023/03/14 09:10:59;;;;;;;1.60;1.60;;;;;;;;;;4920529;29;20696;-78
2023/03/14 09:13:25;;;;;;;1.60;1.60;;;;;;;;;;4934407;29;20455;-77
2023/03/14 09:15:52;;;;;;;2.53;2.33;;;;;;;;;;4926128;29;21017;-81
2023/03/14 09:18:18;;;;;;;1.73;1.60;;;;;;;;;;4932609;29;20564;-80
2023/03/14 09:20:44;;;;;;;2.13;2.13;;;;;;;;;;4921620;29;20517;-80
2023/03/14 09:23:10;;;;;;;2.03;1.93;;;;;;;;;;4940181;28;20548;-79
2023/03/14 09:25:36;;;;;;;1.90;1.83;;;;;;;;;;4936248;28;20492;-81
2023/03/14 09:28:02;;;;;;;1.93;1.73;;;;;;;;;;4940669;28;20905;-80
2023/03/14 09:30:28;;;;;;;1.50;1.50;;;;;;;;;;4950765;28;20517;-80
2023/03/14 09:32:54;;;;;;;0.77;0.77;;;;;;;;;;4956336;28;20448;-80
2023/03/14 09:35:20;;;;;;;0.93;0.83;;;;;;;;;;4953475;28;21090;-80
2023/03/14 09:37:46;;;;;;;1.00;1.00;;;;;;;;;;4930250;29;20516;-80
2023/03/14 09:40:19;;;;;;;0.60;0.60;;;;;;;;;;4954437;28;20561;-76
2023/03/14 09:42:46;;;;;;;0.60;0.60;;;;;;;;;;4955453;28;20454;-77
2023/03/14 09:45:32;;;;;;;3.10;0.90;;;;;;;;;;4942447;28;20544;-77
2023/03/14 09:47:59;;;;;;;1.10;1.00;;;;;;;;;;4949156;28;20445;-78
2023/03/14 09:50:26;;;;;;;1.70;0.93;;;;;;;;;;4953250;28;20447;-77
2023/03/14 09:52:56;;;;;;;0.97;0.90;;;;;;;;;;4939244;28;20430;-78
2023/03/14 09:55:22;;;;;;;0.77;0.77;;;;;;;;;;4954023;28;20516;-78
2023/03/14 09:57:55;;;;;;;1.20;1.17;;;;;;;;;;4949253;28;20826;-76
2023/03/14 10:00:22;;;;;;;1.37;1.27;;;;;;;;;;4946567;28;20728;-77
2023/03/14 10:02:53;;;;;;;1.60;1.60;;;;;;;;;;4946737;28;20453;-77
2023/03/14 10:05:20;;;;;;;1.90;1.80;;;;;;;;;;4950829;28;20457;-77
2023/03/14 10:07:46;;;;;;;1.60;1.50;;;;;;;;;;4937030;28;20465;-77
2023/03/14 10:10:20;;;;;;;2.37;2.17;;;;;;;;;;4934926;28;20617;-78
2023/03/14 10:12:57;;;;;;;2.13;2.13;;;;;;;;;;4959492;28;20453;-78
2023/03/14 10:15:25;;;;;;;1.70;1.60;;;;;;;;;;4930874;29;20811;-79
2023/03/14 10:17:52;;;;;;;3.70;1.93;;;;;;;;;;4948187;28;20949;-81
2023/03/14 10:20:36;;;;;;;1.80;1.80;;;;;;;;;;4949347;28;20536;-79
2023/03/14 10:23:04;;;;;;;1.77;1.67;;;;;;;;;;4942527;28;20457;-78
2023/03/14 10:25:32;;;;;;;2.00;2.00;;;;;;;;;;4942595;28;20450;-78
2023/03/14 10:27:59;;;;;;;2.60;2.50;;;;;;;;;;4943388;28;20811;-77
2023/03/14 10:30:35;;;;;;;1.90;1.80;;;;;;;;;;4939973;28;20443;-78
2023/03/14 10:33:08;;;;;;;2.20;2.20;;;;;;;;;;4937133;28;20449;-77
2023/03/14 10:35:34;;;;;;;2.70;2.70;;;;;;;;;;4931071;28;20442;-78
2023/03/14 10:38:01;;;;;;;3.77;3.43;;;;;;;;;;4949160;28;20442;-78
2023/03/14 10:40:32;;;;;;;3.33;3.20;;;;;;;;;;4961872;28;20897;-77
2023/03/14 10:42:58;;;;;;;6.53;5.10;;;;;;;;;;4944923;28;20442;-78
2023/03/14 10:45:31;;;;;;;6.27;5.67;;;;;;;;;;4941231;28;20567;-77
2023/03/14 10:47:58;;;;;;;4.00;3.90;;;;;;;;;;4935254;28;20919;-78
2023/03/14 10:50:27;;;;;;;3.30;3.03;;;;;;;;;;4960769;28;20531;-77
2023/03/14 10:52:53;;;;;;;2.50;2.37;;;;;;;;;;4963328;28;20471;-78
2023/03/14 10:55:19;;;;;;;2.20;2.10;;;;;;;;;;4959692;28;20957;-76
2023/03/14 10:57:45;;;;;;;8.03;2.23;;;;;;;;;;4953283;28;20860;-77
2023/03/14 11:00:16;;;;;;;4.37;1.50;;;;;;;;;;4952270;28;20593;-77
2023/03/14 11:02:54;;;;;;;1.47;1.30;;;;;;;;;;4961097;28;20528;-78
2023/03/14 11:05:20;;;;;;;1.20;1.20;;;;;;;;;;4954775;28;20511;-78
2023/03/14 11:07:46;;;;;;;1.23;1.23;;;;;;;;;;4952558;28;21094;-76
2023/03/14 11:10:27;;;;;;;1.20;1.10;;;;;;;;;;4953206;28;20977;-77
2023/03/14 11:13:02;;;;;;;2.13;1.00;;;;;;;;;;4958980;28;20761;-76
2023/03/14 11:15:36;;;;;;;2.50;1.60;;;;;;;;;;4942492;28;20878;-78
2023/03/14 11:18:21;;;;;;;1.67;1.00;;;;;;;;;;4937405;28;20464;-77
2023/03/14 11:21:03;;;;;;;2.30;1.20;;;;;;;;;;4937388;28;20536;-78
2023/03/14 11:23:40;;;;;;;1.37;1.00;;;;;;;;;;4944493;28;20965;-79
2023/03/14 11:26:25;;;;;;;1.93;0.83;;;;;;;;;;4934011;28;20442;-79
2023/03/14 11:28:57;;;;;;;1.23;1.23;;;;;;;;;;4930932;28;20940;-78
2023/03/14 11:31:29;;;;;;;1.03;1.03;;;;;;;;;;4947040;28;20441;-78
2023/03/14 11:34:07;;;;;;;0.83;0.83;;;;;;;;;;4915910;28;20475;-77
2023/03/14 11:36:38;;;;;;;1.97;1.10;;;;;;;;;;4945796;28;20941;-78
2023/03/14 11:39:08;;;;;;;0.93;0.90;;;;;;;;;;4947427;28;20496;-78
2023/03/14 11:41:36;;;;;;;1.80;1.20;;;;;;;;;;4947530;28;20943;-76
2023/03/14 11:44:22;;;;;;;0.90;0.90;;;;;;;;;;4957669;28;20441;-79
2023/03/14 11:46:52;;;;;;;1.60;0.87;;;;;;;;;;4935848;28;20426;-75
2023/03/14 11:49:57;;;;;;;0.80;0.80;;;;;;;;;;4953442;28;20464;-76
2023/03/14 11:52:26;;;;;;;0.60;0.60;;;;;;;;;;4896515;29;20432;-77
2023/03/14 11:55:07;;;;;;;1.43;1.30;;;;;;;;;;4896066;29;20868;-77
2023/03/14 11:57:33;;;;;;;1.03;0.70;;;;;;;;;;4928781;28;20532;-78
2023/03/14 12:00:14;;;;;;;0.70;0.70;;;;;;;;;;4948285;28;20832;-78
2023/03/14 12:02:43;;;;;;;1.10;0.80;;;;;;;;;;4964108;28;20441;-80
2023/03/14 12:05:28;;;;;;;2.33;0.60;;;;;;;;;;4943520;28;20439;-81
2023/03/14 12:08:09;;;;;;;4.57;3.43;;;;;;;;;;4935532;28;20442;-76
2023/03/14 12:10:38;;;;;;;0.70;0.70;;;;;;;;;;4939032;28;20817;-76
2023/03/14 12:13:04;;;;;;;1.70;1.33;;;;;;;;;;4956377;28;20464;-75
2023/03/14 12:15:31;;;;;;;1.03;0.90;;;;;;;;;;4955883;28;20449;-75
2023/03/14 12:17:57;;;;;;;0.77;0.77;;;;;;;;;;4943652;28;20430;-78
2023/03/14 12:20:25;;;;;;;1.50;1.40;;;;;;;;;;4939466;28;22005;-76
2023/03/14 12:22:51;;;;;;;0.70;0.70;;;;;;;;;;4940733;28;20706;-78
2023/03/14 12:25:21;;;;;;;1.00;1.00;;;;;;;;;;4937133;28;20541;-76
2023/03/14 12:28:03;;;;;;;4.50;2.30;;;;;;;;;;4941144;28;20461;-76
2023/03/14 12:30:32;;;;;;;0.60;0.60;;;;;;;;;;4949232;28;21022;-76
2023/03/14 12:33:13;;;;;;;2.63;1.00;;;;;;;;;;4956535;28;20492;-76
2023/03/14 12:35:39;;;;;;;5.43;1.80;;;;;;;;;;4949374;28;20782;-77
2023/03/14 12:38:08;;;;;;;0.93;0.77;;;;;;;;;;4947960;28;20430;-79
2023/03/14 12:40:39;;;;;;;0.90;0.90;;;;;;;;;;4933434;28;20859;-76
2023/03/14 12:43:24;;;;;;;1.23;1.13;;;;;;;;;;4949338;28;20446;-76
2023/03/14 12:46:09;;;;;;;2.50;0.63;;;;;;;;;;4951596;28;20448;-77
2023/03/14 12:48:35;;;;;;;1.07;1.07;;;;;;;;;;4951907;28;20912;-76
2023/03/14 12:51:03;;;;;;;1.60;1.00;;;;;;;;;;4953479;28;20452;-76
2023/03/14 12:53:45;;;;;;;4.43;1.23;;;;;;;;;;4932769;29;20525;-78
2023/03/14 12:56:17;;;;;;;2.50;1.10;;;;;;;;;;4947524;28;20487;-80
2023/03/14 12:59:02;;;;;;;2.20;1.43;;;;;;;;;;4937143;28;20501;-74
2023/03/14 13:01:28;;;;;;;4.00;1.20;;;;;;;;;;4933538;28;20437;-76
2023/03/14 13:03:58;;;;;;;1.90;1.20;;;;;;;;;;4945802;28;20526;-74
2023/03/14 13:06:43;;;;;;;6.90;1.10;;;;;;;;;;4947107;28;20434;-76
2023/03/14 13:09:28;;;;;;;4.63;1.27;;;;;;;;;;4951107;28;20445;-76
2023/03/14 13:11:55;;;;;;;4.73;1.40;;;;;;;;;;4934652;28;20412;-75
2023/03/14 13:14:22;;;;;;;3.27;1.60;;;;;;;;;;4948560;28;20476;-76
2023/03/14 13:16:48;;;;;;;17.83;10.90;;;;;;;;;;4942095;28;20410;-75
2023/03/14 13:19:19;;;;;;;4.80;2.13;;;;;;;;;;4943986;28;20970;-76
2023/03/14 13:21:45;;;;;;;3.87;1.90;;;;;;;;;;4952667;28;20500;-76
2023/03/14 13:24:21;;;;;;;2.97;1.80;;;;;;;;;;4939789;28;20430;-76
2023/03/14 13:26:48;;;;;;;7.40;2.80;;;;;;;;;;4943862;28;20417;-77
2023/03/14 13:29:20;;;;;;;2.13;1.70;;;;;;;;;;4953839;28;20529;-76
2023/03/14 13:31:47;;;;;;;4.57;3.33;;;;;;;;;;4953620;28;20560;-76
2023/03/14 13:34:13;;;;;;;5.47;1.40;;;;;;;;;;4951784;28;20422;-76
2023/03/14 13:36:39;;;;;;;12.33;2.80;;;;;;;;;;4952439;28;20435;-77
2023/03/14 13:39:12;;;;;;;10.90;2.00;;;;;;;;;;4956659;28;20845;-76
2023/03/14 13:41:38;;;;;;;7.33;1.83;;;;;;;;;;4940474;28;20430;-76
2023/03/14 13:44:07;;;;;;;10.03;2.03;;;;;;;;;;4955599;28;20943;-75
2023/03/14 13:46:37;;;;;;;10.83;2.57;;;;;;;;;;4953218;28;20473;-75
2023/03/14 13:49:04;;;;;;;5.00;1.70;;;;;;;;;;4955967;28;20547;-77
2023/03/14 13:51:32;;;;;;;4.30;2.10;;;;;;;;;;4959152;28;20774;-75
2023/03/14 13:53:59;;;;;;;14.60;2.57;;;;;;;;;;4951137;28;20452;-77
2023/03/14 13:56:30;;;;;;;7.37;1.97;;;;;;;;;;4955937;28;20430;-76
2023/03/14 13:58:56;;;;;;;4.10;2.40;;;;;;;;;;4949551;28;21048;-76
2023/03/14 14:01:32;;;;;;;8.03;3.00;;;;;;;;;;4939540;28;20953;-76
2023/03/14 14:04:02;;;;;;;11.37;2.33;;;;;;;;;;4952558;28;20911;-75
2023/03/14 14:06:46;;;;;;;7.00;2.23;;;;;;;;;;4948060;28;20454;-74
2023/03/14 14:09:20;;;;;;;4.73;2.30;;;;;;;;;;4936627;28;20423;-77
2023/03/14 14:11:46;;;;;;;5.40;2.27;;;;;;;;;;4944058;28;20841;-78
2023/03/14 14:14:14;;;;;;;4.43;1.87;;;;;;;;;;4924623;28;20538;-76
2023/03/14 14:16:40;;;;;;;11.60;3.70;;;;;;;;;;4948000;28;20544;-75
2023/03/14 14:19:07;;;;;;;3.60;2.30;;;;;;;;;;4941486;28;20726;-77
2023/03/14 14:21:33;;;;;;;12.13;2.73;;;;;;;;;;4951368;28;20438;-76
2023/03/14 14:24:00;;;;;;;10.73;2.03;;;;;;;;;;4925583;29;20446;-75
2023/03/14 14:26:27;;;;;;;8.20;2.80;;;;;;;;;;4920308;29;20806;-75
2023/03/14 14:29:00;;;;;;;4.33;1.83;;;;;;;;;;4917514;29;20967;-76
2023/03/14 14:31:26;;;;;;;6.40;2.40;;;;;;;;;;4913663;29;20455;-77
2023/03/14 14:34:02;;;;;;;6.67;2.27;;;;;;;;;;4926305;29;20447;-74
2023/03/14 14:36:39;;;;;;;4.90;1.97;;;;;;;;;;4912621;29;20434;-75
2023/03/14 14:39:11;;;;;;;2.90;2.37;;;;;;;;;;4923921;29;20561;-74
2023/03/14 14:41:40;;;;;;;3.03;2.00;;;;;;;;;;4921093;29;20849;-73
2023/03/14 14:44:06;;;;;;;2.40;1.20;;;;;;;;;;4941915;29;20904;-74
2023/03/14 14:46:33;;;;;;;3.23;2.20;;;;;;;;;;4914037;29;20949;-73
2023/03/14 14:49:03;;;;;;;2.37;1.37;;;;;;;;;;4929630;29;21013;-75